Aviation Digital Data Service (ADDS)

Output produced by METARs form (0517 UTC 25 May 2018)
found at http://www.aviationweather.gov/adds/metars/
 
FMMI 250500Z 17007KT 140V200 9999 SCT017 BKN020 17/13 Q1024 NOSIG
TAF FMMI 250500Z 2506/2612 12007KT 9999 SCT017
       
TAF FMNA 250500Z 2506/2606 15015G30KT 9999 SCT020
       
FMNM 250500Z 14006KT 9999 FEW040 26/16 Q1016 NOSIG
TAF FMNM 250500Z 2506/2606 14007KT 9999 FEW040
       
FMNN 250400Z 20002KT 9999 FEW020 23/// Q1014
TAF FMNN 250500Z 2506/2606 25008KT 9999 SCT020
       
TAF FMMS 250500Z 2506/2606 16010KT 9999 SCT017 
     BECMG 2518/2521 22007KT 
     PROB40 
     TEMPO 2600/2606 4000 SHRA
       
FMMT 250500Z 24009KT 9999 SCT017TCU 23/21 Q1020 NOSIG
TAF FMMT 250500Z 2506/2606 22009KT 9999 SCT017 SCT033 
     PROB30 
     TEMPO 2603/2606 4000 SHRA
       
FMSD 250500Z 08018KT 9999 FEW020 23/18 Q1017
TAF FMSD 250500Z 2506/2606 08020KT 9999 FEW016
       
TAF FMST 250500Z 2506/2606 24010KT CAVOK 
     BECMG 2518/2521 12005KT